sensor_id;sensor_type;location;lat;lon;timestamp;P1;durP1;ratioP1;P2;durP2;ratioP2
70071;SDS011;57434;42.794;23.302;2024-01-30T00:00:01;6.38;;;1.73;;
70071;SDS011;57434;42.794;23.302;2024-01-30T00:01:03;5.72;;;2.22;;
70071;SDS011;57434;42.794;23.302;2024-01-30T00:02:04;6.97;;;1.83;;
70071;SDS011;57434;42.794;23.302;2024-01-30T00:03:06;4.57;;;1.67;;
70071;SDS011;57434;42.794;23.302;2024-01-30T00:04:08;6.07;;;1.80;;
70071;SDS011;57434;42.794;23.302;2024-01-30T00:05:10;5.72;;;2.15;;
70071;SDS011;57434;42.794;23.302;2024-01-30T00:06:11;6.78;;;2.42;;
70071;SDS011;57434;42.794;23.302;2024-01-30T00:07:13;6.05;;;1.77;;
70071;SDS011;57434;42.794;23.302;2024-01-30T00:08:14;5.80;;;1.90;;
70071;SDS011;57434;42.794;23.302;2024-01-30T00:09:16;4.90;;;1.80;;
70071;SDS011;57434;42.794;23.302;2024-01-30T00:10:18;5.57;;;2.08;;
70071;SDS011;57434;42.794;23.302;2024-01-30T00:11:19;5.97;;;1.67;;
70071;SDS011;57434;42.794;23.302;2024-01-30T00:12:21;4.80;;;1.63;;
70071;SDS011;57434;42.794;23.302;2024-01-30T00:13:22;6.23;;;1.67;;
70071;SDS011;57434;42.794;23.302;2024-01-30T00:14:24;5.38;;;1.85;;
70071;SDS011;57434;42.794;23.302;2024-01-30T00:15:26;5.47;;;2.00;;
70071;SDS011;57434;42.794;23.302;2024-01-30T00:16:27;7.80;;;2.10;;
70071;SDS011;57434;42.794;23.302;2024-01-30T00:17:29;5.38;;;1.85;;
70071;SDS011;57434;42.794;23.302;2024-01-30T00:18:31;6.07;;;1.70;;
70071;SDS011;57434;42.794;23.302;2024-01-30T00:19:32;6.45;;;1.90;;
70071;SDS011;57434;42.794;23.302;2024-01-30T00:20:34;4.30;;;1.50;;
70071;SDS011;57434;42.794;23.302;2024-01-30T00:21:35;7.70;;;2.13;;
70071;SDS011;57434;42.794;23.302;2024-01-30T00:22:37;4.28;;;1.33;;
70071;SDS011;57434;42.794;23.302;2024-01-30T00:23:38;4.37;;;1.40;;
70071;SDS011;57434;42.794;23.302;2024-01-30T00:24:40;4.70;;;1.55;;
70071;SDS011;57434;42.794;23.302;2024-01-30T00:25:42;5.05;;;1.45;;
70071;SDS011;57434;42.794;23.302;2024-01-30T00:26:43;5.30;;;1.48;;
70071;SDS011;57434;42.794;23.302;2024-01-30T00:27:45;6.18;;;1.63;;
70071;SDS011;57434;42.794;23.302;2024-01-30T00:28:46;6.70;;;1.45;;
70071;SDS011;57434;42.794;23.302;2024-01-30T00:29:48;7.28;;;2.17;;
70071;SDS011;57434;42.794;23.302;2024-01-30T00:30:50;4.45;;;1.23;;
70071;SDS011;57434;42.794;23.302;2024-01-30T00:31:51;5.85;;;1.80;;
70071;SDS011;57434;42.794;23.302;2024-01-30T00:32:53;4.93;;;1.48;;
70071;SDS011;57434;42.794;23.302;2024-01-30T00:33:55;5.00;;;1.57;;
70071;SDS011;57434;42.794;23.302;2024-01-30T00:34:56;5.70;;;1.80;;
70071;SDS011;57434;42.794;23.302;2024-01-30T00:35:58;5.78;;;1.67;;
70071;SDS011;57434;42.794;23.302;2024-01-30T00:37:00;5.40;;;1.70;;
70071;SDS011;57434;42.794;23.302;2024-01-30T00:38:01;5.05;;;1.85;;
70071;SDS011;57434;42.794;23.302;2024-01-30T00:39:03;6.65;;;1.73;;
70071;SDS011;57434;42.794;23.302;2024-01-30T00:40:05;4.57;;;1.42;;
70071;SDS011;57434;42.794;23.302;2024-01-30T00:41:08;6.47;;;2.30;;
70071;SDS011;57434;42.794;23.302;2024-01-30T00:42:09;6.60;;;1.73;;
70071;SDS011;57434;42.794;23.302;2024-01-30T00:43:11;8.20;;;1.90;;
70071;SDS011;57434;42.794;23.302;2024-01-30T00:44:12;6.80;;;2.23;;
70071;SDS011;57434;42.794;23.302;2024-01-30T00:45:14;5.88;;;1.30;;
70071;SDS011;57434;42.794;23.302;2024-01-30T00:46:16;6.13;;;1.95;;
70071;SDS011;57434;42.794;23.302;2024-01-30T00:47:18;7.35;;;2.08;;
70071;SDS011;57434;42.794;23.302;2024-01-30T00:48:19;7.00;;;2.42;;
70071;SDS011;57434;42.794;23.302;2024-01-30T00:49:21;6.18;;;2.80;;
70071;SDS011;57434;42.794;23.302;2024-01-30T00:50:23;7.45;;;2.28;;
70071;SDS011;57434;42.794;23.302;2024-01-30T00:51:25;7.22;;;2.72;;
70071;SDS011;57434;42.794;23.302;2024-01-30T00:52:26;5.43;;;2.03;;
70071;SDS011;57434;42.794;23.302;2024-01-30T00:53:28;6.93;;;1.90;;
70071;SDS011;57434;42.794;23.302;2024-01-30T00:54:29;5.13;;;1.70;;
70071;SDS011;57434;42.794;23.302;2024-01-30T00:55:31;6.88;;;1.98;;
70071;SDS011;57434;42.794;23.302;2024-01-30T00:56:33;6.20;;;1.60;;
70071;SDS011;57434;42.794;23.302;2024-01-30T00:57:34;7.85;;;2.90;;
70071;SDS011;57434;42.794;23.302;2024-01-30T00:58:36;6.25;;;2.40;;
70071;SDS011;57434;42.794;23.302;2024-01-30T00:59:37;10.02;;;2.90;;
70071;SDS011;57434;42.794;23.302;2024-01-30T01:00:39;6.88;;;2.42;;
70071;SDS011;57434;42.794;23.302;2024-01-30T01:01:41;6.95;;;2.47;;
70071;SDS011;57434;42.794;23.302;2024-01-30T01:02:43;4.78;;;2.00;;
70071;SDS011;57434;42.794;23.302;2024-01-30T01:03:44;6.50;;;2.33;;
70071;SDS011;57434;42.794;23.302;2024-01-30T01:04:46;9.97;;;2.80;;
70071;SDS011;57434;42.794;23.302;2024-01-30T01:05:48;7.28;;;2.25;;
70071;SDS011;57434;42.794;23.302;2024-01-30T01:06:49;6.30;;;2.08;;
70071;SDS011;57434;42.794;23.302;2024-01-30T01:07:51;6.80;;;2.50;;
70071;SDS011;57434;42.794;23.302;2024-01-30T01:08:53;7.40;;;2.15;;
70071;SDS011;57434;42.794;23.302;2024-01-30T01:09:54;5.50;;;1.58;;
70071;SDS011;57434;42.794;23.302;2024-01-30T01:10:56;5.78;;;2.28;;
70071;SDS011;57434;42.794;23.302;2024-01-30T01:11:58;5.15;;;1.73;;
70071;SDS011;57434;42.794;23.302;2024-01-30T01:12:59;5.47;;;1.80;;
70071;SDS011;57434;42.794;23.302;2024-01-30T01:14:01;5.53;;;2.03;;
70071;SDS011;57434;42.794;23.302;2024-01-30T01:15:02;6.20;;;2.63;;
70071;SDS011;57434;42.794;23.302;2024-01-30T01:16:04;10.20;;;3.30;;
70071;SDS011;57434;42.794;23.302;2024-01-30T01:17:06;6.35;;;2.85;;
70071;SDS011;57434;42.794;23.302;2024-01-30T01:18:07;9.95;;;2.85;;
70071;SDS011;57434;42.794;23.302;2024-01-30T01:19:09;8.95;;;3.22;;
70071;SDS011;57434;42.794;23.302;2024-01-30T01:20:11;9.68;;;2.80;;
70071;SDS011;57434;42.794;23.302;2024-01-30T01:21:12;10.25;;;3.35;;
70071;SDS011;57434;42.794;23.302;2024-01-30T01:22:14;10.57;;;4.47;;
70071;SDS011;57434;42.794;23.302;2024-01-30T01:23:16;8.27;;;3.00;;
70071;SDS011;57434;42.794;23.302;2024-01-30T01:24:17;11.00;;;4.00;;
70071;SDS011;57434;42.794;23.302;2024-01-30T01:25:19;10.87;;;4.40;;
70071;SDS011;57434;42.794;23.302;2024-01-30T01:26:20;12.10;;;3.83;;
70071;SDS011;57434;42.794;23.302;2024-01-30T01:27:22;10.18;;;4.00;;
70071;SDS011;57434;42.794;23.302;2024-01-30T01:28:24;7.28;;;2.90;;
70071;SDS011;57434;42.794;23.302;2024-01-30T01:29:25;9.80;;;3.50;;
70071;SDS011;57434;42.794;23.302;2024-01-30T01:30:27;12.20;;;4.13;;
70071;SDS011;57434;42.794;23.302;2024-01-30T01:31:28;12.07;;;4.47;;
70071;SDS011;57434;42.794;23.302;2024-01-30T01:32:30;12.45;;;4.28;;
70071;SDS011;57434;42.794;23.302;2024-01-30T01:33:32;15.52;;;4.97;;
70071;SDS011;57434;42.794;23.302;2024-01-30T01:34:34;10.48;;;4.03;;
70071;SDS011;57434;42.794;23.302;2024-01-30T01:35:36;11.30;;;3.80;;
70071;SDS011;57434;42.794;23.302;2024-01-30T01:36:37;10.55;;;3.92;;
70071;SDS011;57434;42.794;23.302;2024-01-30T01:37:39;9.18;;;3.70;;
70071;SDS011;57434;42.794;23.302;2024-01-30T01:38:40;13.50;;;4.78;;
70071;SDS011;57434;42.794;23.302;2024-01-30T01:39:42;8.70;;;3.70;;
70071;SDS011;57434;42.794;23.302;2024-01-30T01:40:43;10.95;;;4.20;;
70071;SDS011;57434;42.794;23.302;2024-01-30T01:41:45;10.05;;;3.80;;
70071;SDS011;57434;42.794;23.302;2024-01-30T01:42:47;8.15;;;3.15;;
70071;SDS011;57434;42.794;23.302;2024-01-30T01:43:48;8.70;;;2.63;;
70071;SDS011;57434;42.794;23.302;2024-01-30T01:44:50;7.30;;;2.45;;
70071;SDS011;57434;42.794;23.302;2024-01-30T01:45:51;9.27;;;3.00;;
70071;SDS011;57434;42.794;23.302;2024-01-30T01:46:54;6.53;;;2.40;;
70071;SDS011;57434;42.794;23.302;2024-01-30T01:47:55;11.80;;;3.20;;
70071;SDS011;57434;42.794;23.302;2024-01-30T01:48:57;9.82;;;3.03;;
70071;SDS011;57434;42.794;23.302;2024-01-30T01:49:59;7.90;;;2.75;;
70071;SDS011;57434;42.794;23.302;2024-01-30T01:51:01;7.20;;;2.78;;
70071;SDS011;57434;42.794;23.302;2024-01-30T01:52:04;6.90;;;2.10;;
70071;SDS011;57434;42.794;23.302;2024-01-30T01:53:06;6.28;;;1.98;;
70071;SDS011;57434;42.794;23.302;2024-01-30T01:54:09;6.22;;;2.13;;
70071;SDS011;57434;42.794;23.302;2024-01-30T01:55:10;6.82;;;2.33;;
70071;SDS011;57434;42.794;23.302;2024-01-30T01:56:12;6.57;;;2.43;;
70071;SDS011;57434;42.794;23.302;2024-01-30T01:57:14;6.43;;;2.88;;
70071;SDS011;57434;42.794;23.302;2024-01-30T01:58:16;7.53;;;2.95;;
70071;SDS011;57434;42.794;23.302;2024-01-30T01:59:18;7.70;;;2.83;;
70071;SDS011;57434;42.794;23.302;2024-01-30T02:00:21;9.02;;;3.10;;
70071;SDS011;57434;42.794;23.302;2024-01-30T02:01:22;8.43;;;3.28;;
70071;SDS011;57434;42.794;23.302;2024-01-30T02:02:25;7.03;;;2.50;;
70071;SDS011;57434;42.794;23.302;2024-01-30T02:03:28;8.02;;;2.50;;
70071;SDS011;57434;42.794;23.302;2024-01-30T02:04:29;6.63;;;2.13;;
70071;SDS011;57434;42.794;23.302;2024-01-30T02:05:31;8.95;;;2.63;;
70071;SDS011;57434;42.794;23.302;2024-01-30T02:06:33;6.83;;;2.20;;
70071;SDS011;57434;42.794;23.302;2024-01-30T02:07:35;9.52;;;2.78;;
70071;SDS011;57434;42.794;23.302;2024-01-30T02:08:37;7.57;;;2.88;;
70071;SDS011;57434;42.794;23.302;2024-01-30T02:09:39;6.57;;;2.03;;
70071;SDS011;57434;42.794;23.302;2024-01-30T02:10:40;6.60;;;2.72;;
70071;SDS011;57434;42.794;23.302;2024-01-30T02:11:42;6.97;;;1.90;;
70071;SDS011;57434;42.794;23.302;2024-01-30T02:12:43;6.80;;;2.53;;
70071;SDS011;57434;42.794;23.302;2024-01-30T02:13:45;6.35;;;2.10;;
70071;SDS011;57434;42.794;23.302;2024-01-30T02:14:47;7.03;;;2.30;;
70071;SDS011;57434;42.794;23.302;2024-01-30T02:15:52;6.53;;;2.53;;
70071;SDS011;57434;42.794;23.302;2024-01-30T02:16:54;6.93;;;2.03;;
70071;SDS011;57434;42.794;23.302;2024-01-30T02:17:55;7.50;;;2.92;;
70071;SDS011;57434;42.794;23.302;2024-01-30T02:18:57;6.28;;;2.40;;
70071;SDS011;57434;42.794;23.302;2024-01-30T02:19:59;7.30;;;2.45;;
70071;SDS011;57434;42.794;23.302;2024-01-30T02:21:04;6.88;;;2.58;;
70071;SDS011;57434;42.794;23.302;2024-01-30T02:22:05;7.68;;;2.63;;
70071;SDS011;57434;42.794;23.302;2024-01-30T02:23:08;8.93;;;2.22;;
70071;SDS011;57434;42.794;23.302;2024-01-30T02:24:10;7.05;;;2.55;;
70071;SDS011;57434;42.794;23.302;2024-01-30T02:25:12;7.47;;;2.83;;
70071;SDS011;57434;42.794;23.302;2024-01-30T02:26:13;8.30;;;2.70;;
70071;SDS011;57434;42.794;23.302;2024-01-30T02:27:15;7.37;;;2.80;;
70071;SDS011;57434;42.794;23.302;2024-01-30T02:28:17;7.43;;;2.60;;
70071;SDS011;57434;42.794;23.302;2024-01-30T02:29:18;8.30;;;3.28;;
70071;SDS011;57434;42.794;23.302;2024-01-30T02:30:20;5.90;;;2.50;;
70071;SDS011;57434;42.794;23.302;2024-01-30T02:31:21;9.45;;;3.90;;
70071;SDS011;57434;42.794;23.302;2024-01-30T02:32:23;14.80;;;5.18;;
70071;SDS011;57434;42.794;23.302;2024-01-30T02:33:25;15.35;;;4.95;;
70071;SDS011;57434;42.794;23.302;2024-01-30T02:34:26;25.98;;;6.40;;
70071;SDS011;57434;42.794;23.302;2024-01-30T02:35:28;29.65;;;7.95;;
70071;SDS011;57434;42.794;23.302;2024-01-30T02:36:30;65.88;;;16.73;;
70071;SDS011;57434;42.794;23.302;2024-01-30T02:37:31;113.80;;;29.83;;
70071;SDS011;57434;42.794;23.302;2024-01-30T02:40:17;68.82;;;20.60;;
70071;SDS011;57434;42.794;23.302;2024-01-30T02:41:19;50.97;;;17.35;;
70071;SDS011;57434;42.794;23.302;2024-01-30T02:42:20;21.70;;;7.35;;
70071;SDS011;57434;42.794;23.302;2024-01-30T02:43:22;14.63;;;4.65;;
70071;SDS011;57434;42.794;23.302;2024-01-30T02:44:24;9.98;;;2.72;;
70071;SDS011;57434;42.794;23.302;2024-01-30T02:45:25;8.35;;;3.00;;
70071;SDS011;57434;42.794;23.302;2024-01-30T02:46:27;8.60;;;2.70;;
70071;SDS011;57434;42.794;23.302;2024-01-30T02:47:28;8.85;;;3.30;;
70071;SDS011;57434;42.794;23.302;2024-01-30T02:48:31;8.50;;;3.73;;
70071;SDS011;57434;42.794;23.302;2024-01-30T02:49:32;9.10;;;2.90;;
70071;SDS011;57434;42.794;23.302;2024-01-30T02:50:34;6.05;;;1.88;;
70071;SDS011;57434;42.794;23.302;2024-01-30T02:51:36;7.38;;;2.40;;
70071;SDS011;57434;42.794;23.302;2024-01-30T02:52:37;8.73;;;2.53;;
70071;SDS011;57434;42.794;23.302;2024-01-30T02:53:39;7.38;;;3.17;;
70071;SDS011;57434;42.794;23.302;2024-01-30T02:54:40;7.25;;;2.95;;
70071;SDS011;57434;42.794;23.302;2024-01-30T02:55:42;6.18;;;2.30;;
70071;SDS011;57434;42.794;23.302;2024-01-30T02:56:44;5.30;;;2.00;;
70071;SDS011;57434;42.794;23.302;2024-01-30T02:57:45;5.97;;;2.13;;
70071;SDS011;57434;42.794;23.302;2024-01-30T02:58:47;5.93;;;2.10;;
70071;SDS011;57434;42.794;23.302;2024-01-30T02:59:48;5.70;;;1.80;;
70071;SDS011;57434;42.794;23.302;2024-01-30T03:00:50;8.30;;;2.40;;
70071;SDS011;57434;42.794;23.302;2024-01-30T03:01:51;7.05;;;2.38;;
70071;SDS011;57434;42.794;23.302;2024-01-30T03:02:53;6.45;;;1.80;;
70071;SDS011;57434;42.794;23.302;2024-01-30T03:03:55;4.80;;;1.63;;
70071;SDS011;57434;42.794;23.302;2024-01-30T03:04:56;7.88;;;2.38;;
70071;SDS011;57434;42.794;23.302;2024-01-30T03:05:58;6.47;;;2.13;;
70071;SDS011;57434;42.794;23.302;2024-01-30T03:07:00;5.05;;;1.60;;
70071;SDS011;57434;42.794;23.302;2024-01-30T03:08:02;6.07;;;1.48;;
70071;SDS011;57434;42.794;23.302;2024-01-30T03:09:05;6.50;;;2.23;;
70071;SDS011;57434;42.794;23.302;2024-01-30T03:10:07;6.00;;;2.30;;
70071;SDS011;57434;42.794;23.302;2024-01-30T03:11:08;7.75;;;2.05;;
70071;SDS011;57434;42.794;23.302;2024-01-30T03:12:10;7.38;;;2.10;;
70071;SDS011;57434;42.794;23.302;2024-01-30T03:13:12;7.13;;;2.33;;
70071;SDS011;57434;42.794;23.302;2024-01-30T03:14:13;6.47;;;2.15;;
70071;SDS011;57434;42.794;23.302;2024-01-30T03:15:15;7.35;;;2.53;;
70071;SDS011;57434;42.794;23.302;2024-01-30T03:16:16;9.65;;;2.55;;
70071;SDS011;57434;42.794;23.302;2024-01-30T03:17:18;9.10;;;3.30;;
70071;SDS011;57434;42.794;23.302;2024-01-30T03:18:20;7.97;;;2.75;;
70071;SDS011;57434;42.794;23.302;2024-01-30T03:19:22;8.97;;;3.03;;
70071;SDS011;57434;42.794;23.302;2024-01-30T03:20:23;31.95;;;9.35;;
70071;SDS011;57434;42.794;23.302;2024-01-30T03:21:25;30.70;;;10.07;;
70071;SDS011;57434;42.794;23.302;2024-01-30T03:22:26;27.30;;;8.10;;
70071;SDS011;57434;42.794;23.302;2024-01-30T03:23:28;31.52;;;10.00;;
70071;SDS011;57434;42.794;23.302;2024-01-30T03:24:30;33.55;;;10.40;;
70071;SDS011;57434;42.794;23.302;2024-01-30T03:25:31;22.92;;;7.47;;
70071;SDS011;57434;42.794;23.302;2024-01-30T03:26:33;17.20;;;5.97;;
70071;SDS011;57434;42.794;23.302;2024-01-30T03:27:34;17.40;;;4.68;;
70071;SDS011;57434;42.794;23.302;2024-01-30T03:28:36;13.38;;;4.10;;
70071;SDS011;57434;42.794;23.302;2024-01-30T03:29:37;8.73;;;2.77;;
70071;SDS011;57434;42.794;23.302;2024-01-30T03:30:39;9.38;;;3.30;;
70071;SDS011;57434;42.794;23.302;2024-01-30T03:31:41;6.30;;;2.47;;
70071;SDS011;57434;42.794;23.302;2024-01-30T03:32:42;7.80;;;2.53;;
70071;SDS011;57434;42.794;23.302;2024-01-30T03:33:44;10.43;;;3.90;;
70071;SDS011;57434;42.794;23.302;2024-01-30T03:34:46;10.63;;;3.90;;
70071;SDS011;57434;42.794;23.302;2024-01-30T03:35:47;9.15;;;3.65;;
70071;SDS011;57434;42.794;23.302;2024-01-30T03:36:49;9.52;;;2.30;;
70071;SDS011;57434;42.794;23.302;2024-01-30T03:37:51;8.48;;;2.95;;
70071;SDS011;57434;42.794;23.302;2024-01-30T03:38:52;9.90;;;4.03;;
70071;SDS011;57434;42.794;23.302;2024-01-30T03:39:54;14.23;;;5.83;;
70071;SDS011;57434;42.794;23.302;2024-01-30T03:40:56;12.40;;;5.03;;
70071;SDS011;57434;42.794;23.302;2024-01-30T03:41:57;14.80;;;5.82;;
70071;SDS011;57434;42.794;23.302;2024-01-30T03:42:59;10.88;;;4.50;;
70071;SDS011;57434;42.794;23.302;2024-01-30T03:44:00;14.15;;;5.90;;
70071;SDS011;57434;42.794;23.302;2024-01-30T03:45:02;14.98;;;5.78;;
70071;SDS011;57434;42.794;23.302;2024-01-30T03:46:04;7.93;;;2.58;;
70071;SDS011;57434;42.794;23.302;2024-01-30T03:47:06;8.68;;;2.72;;
70071;SDS011;57434;42.794;23.302;2024-01-30T03:48:07;8.90;;;2.17;;
70071;SDS011;57434;42.794;23.302;2024-01-30T03:49:09;7.00;;;2.15;;
70071;SDS011;57434;42.794;23.302;2024-01-30T03:50:11;7.13;;;2.23;;
70071;SDS011;57434;42.794;23.302;2024-01-30T03:51:13;5.53;;;1.65;;
70071;SDS011;57434;42.794;23.302;2024-01-30T03:52:14;7.68;;;2.30;;
70071;SDS011;57434;42.794;23.302;2024-01-30T03:53:16;8.48;;;3.55;;
70071;SDS011;57434;42.794;23.302;2024-01-30T03:54:18;7.97;;;2.25;;
70071;SDS011;57434;42.794;23.302;2024-01-30T03:55:20;5.55;;;1.50;;
70071;SDS011;57434;42.794;23.302;2024-01-30T03:56:21;5.82;;;1.95;;
70071;SDS011;57434;42.794;23.302;2024-01-30T03:57:23;6.68;;;2.28;;
70071;SDS011;57434;42.794;23.302;2024-01-30T03:58:25;5.93;;;2.30;;
70071;SDS011;57434;42.794;23.302;2024-01-30T03:59:26;7.22;;;1.70;;
70071;SDS011;57434;42.794;23.302;2024-01-30T04:00:28;8.77;;;2.80;;
70071;SDS011;57434;42.794;23.302;2024-01-30T04:01:29;7.97;;;3.38;;
70071;SDS011;57434;42.794;23.302;2024-01-30T04:02:31;7.22;;;3.05;;
70071;SDS011;57434;42.794;23.302;2024-01-30T04:03:33;9.23;;;3.35;;
70071;SDS011;57434;42.794;23.302;2024-01-30T04:04:34;8.93;;;3.65;;
70071;SDS011;57434;42.794;23.302;2024-01-30T04:05:36;10.25;;;3.40;;
70071;SDS011;57434;42.794;23.302;2024-01-30T04:06:38;9.32;;;3.40;;
70071;SDS011;57434;42.794;23.302;2024-01-30T04:07:39;9.52;;;3.50;;
70071;SDS011;57434;42.794;23.302;2024-01-30T04:08:41;6.20;;;2.00;;
70071;SDS011;57434;42.794;23.302;2024-01-30T04:09:42;5.63;;;1.77;;
70071;SDS011;57434;42.794;23.302;2024-01-30T04:10:44;5.17;;;1.87;;
70071;SDS011;57434;42.794;23.302;2024-01-30T04:11:46;6.25;;;1.83;;
70071;SDS011;57434;42.794;23.302;2024-01-30T04:12:47;6.45;;;2.20;;
70071;SDS011;57434;42.794;23.302;2024-01-30T04:13:49;11.10;;;2.95;;
70071;SDS011;57434;42.794;23.302;2024-01-30T04:14:50;9.10;;;3.60;;
70071;SDS011;57434;42.794;23.302;2024-01-30T04:15:52;10.60;;;3.03;;
70071;SDS011;57434;42.794;23.302;2024-01-30T04:16:53;11.25;;;3.60;;
70071;SDS011;57434;42.794;23.302;2024-01-30T04:17:57;10.95;;;3.13;;
70071;SDS011;57434;42.794;23.302;2024-01-30T04:18:58;8.10;;;2.45;;
70071;SDS011;57434;42.794;23.302;2024-01-30T04:20:00;6.65;;;1.70;;
70071;SDS011;57434;42.794;23.302;2024-01-30T04:21:02;10.10;;;3.00;;
70071;SDS011;57434;42.794;23.302;2024-01-30T04:22:03;7.95;;;2.90;;
70071;SDS011;57434;42.794;23.302;2024-01-30T04:23:05;8.70;;;2.75;;
70071;SDS011;57434;42.794;23.302;2024-01-30T04:24:07;5.20;;;1.67;;
70071;SDS011;57434;42.794;23.302;2024-01-30T04:25:08;7.20;;;1.98;;
70071;SDS011;57434;42.794;23.302;2024-01-30T04:26:10;5.65;;;1.70;;
70071;SDS011;57434;42.794;23.302;2024-01-30T04:27:11;6.10;;;1.80;;
70071;SDS011;57434;42.794;23.302;2024-01-30T04:28:13;5.10;;;1.38;;
70071;SDS011;57434;42.794;23.302;2024-01-30T04:29:15;8.07;;;1.85;;
70071;SDS011;57434;42.794;23.302;2024-01-30T04:30:16;6.90;;;1.38;;
70071;SDS011;57434;42.794;23.302;2024-01-30T04:31:18;4.07;;;1.43;;
70071;SDS011;57434;42.794;23.302;2024-01-30T04:32:20;4.97;;;1.70;;
70071;SDS011;57434;42.794;23.302;2024-01-30T04:33:21;7.32;;;2.60;;
70071;SDS011;57434;42.794;23.302;2024-01-30T04:34:23;6.53;;;2.15;;
70071;SDS011;57434;42.794;23.302;2024-01-30T04:35:25;8.80;;;2.90;;
70071;SDS011;57434;42.794;23.302;2024-01-30T04:36:26;8.95;;;2.95;;
70071;SDS011;57434;42.794;23.302;2024-01-30T04:37:28;7.85;;;2.75;;
70071;SDS011;57434;42.794;23.302;2024-01-30T04:38:29;5.32;;;1.50;;
70071;SDS011;57434;42.794;23.302;2024-01-30T04:39:33;4.65;;;1.35;;
70071;SDS011;57434;42.794;23.302;2024-01-30T04:40:34;6.55;;;1.58;;
70071;SDS011;57434;42.794;23.302;2024-01-30T04:41:36;3.40;;;0.97;;
70071;SDS011;57434;42.794;23.302;2024-01-30T04:42:37;5.55;;;1.50;;
70071;SDS011;57434;42.794;23.302;2024-01-30T04:43:39;4.68;;;1.20;;
70071;SDS011;57434;42.794;23.302;2024-01-30T04:44:40;5.65;;;1.42;;
70071;SDS011;57434;42.794;23.302;2024-01-30T04:45:42;5.07;;;1.40;;
70071;SDS011;57434;42.794;23.302;2024-01-30T04:46:43;6.28;;;1.02;;
70071;SDS011;57434;42.794;23.302;2024-01-30T04:47:45;3.58;;;0.93;;
70071;SDS011;57434;42.794;23.302;2024-01-30T04:48:47;5.55;;;1.42;;
70071;SDS011;57434;42.794;23.302;2024-01-30T04:49:48;3.13;;;1.10;;
70071;SDS011;57434;42.794;23.302;2024-01-30T04:50:50;4.32;;;1.45;;
70071;SDS011;57434;42.794;23.302;2024-01-30T04:51:52;13.83;;;4.77;;
70071;SDS011;57434;42.794;23.302;2024-01-30T04:52:53;17.33;;;4.70;;
70071;SDS011;57434;42.794;23.302;2024-01-30T04:53:55;8.07;;;2.72;;
70071;SDS011;57434;42.794;23.302;2024-01-30T04:54:56;8.90;;;3.45;;
70071;SDS011;57434;42.794;23.302;2024-01-30T04:55:58;5.43;;;1.40;;
70071;SDS011;57434;42.794;23.302;2024-01-30T04:57:00;6.22;;;1.90;;
70071;SDS011;57434;42.794;23.302;2024-01-30T04:58:01;8.43;;;2.83;;
70071;SDS011;57434;42.794;23.302;2024-01-30T04:59:03;7.00;;;2.13;;
70071;SDS011;57434;42.794;23.302;2024-01-30T05:00:05;16.38;;;5.95;;
70071;SDS011;57434;42.794;23.302;2024-01-30T05:01:07;5.90;;;1.83;;
70071;SDS011;57434;42.794;23.302;2024-01-30T05:02:08;9.20;;;3.33;;
70071;SDS011;57434;42.794;23.302;2024-01-30T05:03:10;14.05;;;5.13;;
70071;SDS011;57434;42.794;23.302;2024-01-30T05:04:12;16.10;;;5.72;;
70071;SDS011;57434;42.794;23.302;2024-01-30T05:05:17;14.93;;;5.13;;
70071;SDS011;57434;42.794;23.302;2024-01-30T05:06:25;17.63;;;5.13;;
70071;SDS011;57434;42.794;23.302;2024-01-30T05:07:27;18.15;;;6.10;;
70071;SDS011;57434;42.794;23.302;2024-01-30T05:08:29;18.23;;;6.93;;
70071;SDS011;57434;42.794;23.302;2024-01-30T05:09:30;21.02;;;6.60;;
70071;SDS011;57434;42.794;23.302;2024-01-30T05:10:32;18.17;;;5.53;;
70071;SDS011;57434;42.794;23.302;2024-01-30T05:11:40;18.30;;;5.60;;
70071;SDS011;57434;42.794;23.302;2024-01-30T05:12:41;15.00;;;4.93;;
70071;SDS011;57434;42.794;23.302;2024-01-30T05:13:43;16.02;;;5.22;;
70071;SDS011;57434;42.794;23.302;2024-01-30T05:14:44;11.25;;;3.63;;
70071;SDS011;57434;42.794;23.302;2024-01-30T05:15:46;11.02;;;3.63;;
70071;SDS011;57434;42.794;23.302;2024-01-30T05:16:48;12.73;;;3.60;;
70071;SDS011;57434;42.794;23.302;2024-01-30T05:17:49;12.65;;;4.28;;
70071;SDS011;57434;42.794;23.302;2024-01-30T05:18:51;14.02;;;5.10;;
70071;SDS011;57434;42.794;23.302;2024-01-30T05:19:53;11.90;;;3.70;;
70071;SDS011;57434;42.794;23.302;2024-01-30T05:20:54;15.75;;;4.25;;
70071;SDS011;57434;42.794;23.302;2024-01-30T05:21:56;10.88;;;3.78;;
70071;SDS011;57434;42.794;23.302;2024-01-30T05:22:57;12.53;;;3.97;;
70071;SDS011;57434;42.794;23.302;2024-01-30T05:23:59;17.60;;;5.90;;
70071;SDS011;57434;42.794;23.302;2024-01-30T05:25:01;15.48;;;5.20;;
70071;SDS011;57434;42.794;23.302;2024-01-30T05:26:02;18.80;;;4.72;;
70071;SDS011;57434;42.794;23.302;2024-01-30T05:27:04;17.45;;;4.95;;
70071;SDS011;57434;42.794;23.302;2024-01-30T05:28:06;14.48;;;5.72;;
70071;SDS011;57434;42.794;23.302;2024-01-30T05:29:07;15.20;;;5.00;;
70071;SDS011;57434;42.794;23.302;2024-01-30T05:30:09;11.38;;;4.53;;
70071;SDS011;57434;42.794;23.302;2024-01-30T05:31:11;18.83;;;7.25;;
70071;SDS011;57434;42.794;23.302;2024-01-30T05:32:12;16.13;;;6.00;;
70071;SDS011;57434;42.794;23.302;2024-01-30T05:33:14;11.53;;;4.00;;
70071;SDS011;57434;42.794;23.302;2024-01-30T05:34:16;13.80;;;5.72;;
70071;SDS011;57434;42.794;23.302;2024-01-30T05:35:18;12.23;;;5.47;;
70071;SDS011;57434;42.794;23.302;2024-01-30T05:36:19;10.60;;;4.57;;
70071;SDS011;57434;42.794;23.302;2024-01-30T05:37:21;10.68;;;4.57;;
70071;SDS011;57434;42.794;23.302;2024-01-30T05:38:22;12.02;;;4.32;;
70071;SDS011;57434;42.794;23.302;2024-01-30T05:39:24;10.55;;;4.22;;
70071;SDS011;57434;42.794;23.302;2024-01-30T05:40:26;13.60;;;3.95;;
70071;SDS011;57434;42.794;23.302;2024-01-30T05:41:27;8.32;;;3.22;;
70071;SDS011;57434;42.794;23.302;2024-01-30T05:42:29;7.70;;;2.97;;
70071;SDS011;57434;42.794;23.302;2024-01-30T05:43:30;9.30;;;3.20;;
70071;SDS011;57434;42.794;23.302;2024-01-30T05:44:32;8.45;;;3.20;;
70071;SDS011;57434;42.794;23.302;2024-01-30T05:45:33;12.00;;;3.28;;
70071;SDS011;57434;42.794;23.302;2024-01-30T05:46:35;9.75;;;3.03;;
70071;SDS011;57434;42.794;23.302;2024-01-30T05:47:37;8.05;;;3.33;;
70071;SDS011;57434;42.794;23.302;2024-01-30T05:48:38;8.98;;;2.75;;
70071;SDS011;57434;42.794;23.302;2024-01-30T05:49:40;9.55;;;3.20;;
70071;SDS011;57434;42.794;23.302;2024-01-30T05:50:41;9.38;;;3.00;;
70071;SDS011;57434;42.794;23.302;2024-01-30T05:51:43;7.05;;;2.83;;
70071;SDS011;57434;42.794;23.302;2024-01-30T05:52:45;7.63;;;2.60;;
70071;SDS011;57434;42.794;23.302;2024-01-30T05:53:46;7.67;;;2.80;;
70071;SDS011;57434;42.794;23.302;2024-01-30T05:54:48;6.28;;;2.30;;
70071;SDS011;57434;42.794;23.302;2024-01-30T05:55:49;8.60;;;3.08;;
70071;SDS011;57434;42.794;23.302;2024-01-30T05:56:51;8.85;;;3.05;;
70071;SDS011;57434;42.794;23.302;2024-01-30T05:57:52;6.47;;;2.35;;
70071;SDS011;57434;42.794;23.302;2024-01-30T05:58:54;7.43;;;2.65;;
70071;SDS011;57434;42.794;23.302;2024-01-30T05:59:56;10.10;;;3.33;;
70071;SDS011;57434;42.794;23.302;2024-01-30T06:00:57;9.65;;;3.65;;
70071;SDS011;57434;42.794;23.302;2024-01-30T06:01:59;12.55;;;4.45;;
70071;SDS011;57434;42.794;23.302;2024-01-30T06:03:01;12.48;;;4.60;;
70071;SDS011;57434;42.794;23.302;2024-01-30T06:04:03;11.40;;;4.60;;
70071;SDS011;57434;42.794;23.302;2024-01-30T06:05:05;9.70;;;4.03;;
70071;SDS011;57434;42.794;23.302;2024-01-30T06:06:06;7.82;;;3.17;;